Time;durP1;ratioP1;P1;durP2;ratioP2;P2;SDS_P1;SDS_P2;PMS_P1;PMS_P2;Temp;Humidity;BMP_temperature;BMP_pressure;BME280_temperature;BME280_humidity;BME280_pressure;Samples;Min_cycle;Max_cycle;Signal;HPM_P1;HPM_P2
2021/06/18 00:00:28;;;;;;;6.93;5.40;;;;;;;25.23;58.16;99186.16;2075098;28;20056;-62
2021/06/18 00:01:29;;;;;;;6.38;5.65;;;;;;;25.23;58.37;99192.53;2071171;28;20037;-62
2021/06/18 00:02:29;;;;;;;5.60;5.07;;;;;;;25.24;58.37;99196.97;2072060;28;20040;-63
2021/06/18 00:03:30;;;;;;;6.83;5.87;;;;;;;25.23;58.32;99195.31;2070642;28;20032;-63
2021/06/18 00:04:30;;;;;;;7.23;6.07;;;;;;;25.23;58.46;99195.31;2073519;28;20476;-62
2021/06/18 00:05:31;;;;;;;7.73;5.67;;;;;;;25.24;58.31;99207.19;2082863;28;20028;-63
2021/06/18 00:06:31;;;;;;;7.23;5.53;;;;;;;25.24;58.42;99201.66;2073397;28;20119;-63
2021/06/18 00:07:32;;;;;;;7.33;5.47;;;;;;;25.23;58.52;99203.56;2071962;28;20033;-62
2021/06/18 00:08:32;;;;;;;6.00;5.40;;;;;;;25.23;58.29;99206.34;2073434;28;20109;-62
2021/06/18 00:09:33;;;;;;;6.83;5.73;;;;;;;25.22;58.41;99199.09;2076930;28;20059;-63
2021/06/18 00:10:34;;;;;;;6.43;5.70;;;;;;;25.22;58.15;99209.28;2074593;28;20025;-63
2021/06/18 00:11:35;;;;;;;6.00;5.40;;;;;;;25.21;58.35;99208.44;2071570;28;20028;-63
2021/06/18 00:12:36;;;;;;;8.15;5.43;;;;;;;25.22;58.44;99206.53;2083237;28;20458;-63
2021/06/18 00:13:36;;;;;;;6.57;5.60;;;;;;;25.21;58.17;99202.09;2073140;28;20218;-62
2021/06/18 00:14:37;;;;;;;6.37;5.63;;;;;;;25.22;58.22;99193.59;2074797;28;20060;-62
2021/06/18 00:15:37;;;;;;;7.23;6.27;;;;;;;25.21;58.25;99197.41;2082647;28;20021;-62
2021/06/18 00:16:37;;;;;;;7.37;6.03;;;;;;;25.22;58.22;99192.75;2072770;28;20029;-61
2021/06/18 00:17:38;;;;;;;5.97;5.37;;;;;;;25.22;58.40;99201.84;2071633;28;20029;-62
2021/06/18 00:18:40;;;;;;;6.20;5.27;;;;;;;25.20;58.43;99201.22;2072422;28;20143;-63
2021/06/18 00:19:41;;;;;;;7.47;5.50;;;;;;;25.21;58.39;99205.69;2058736;28;20022;-63
2021/06/18 00:20:41;;;;;;;6.17;5.27;;;;;;;25.22;58.45;99204.63;2057971;28;20053;-61
2021/06/18 00:21:42;;;;;;;7.47;5.87;;;;;;;25.20;58.49;99206.72;2067817;28;20124;-61
2021/06/18 00:22:43;;;;;;;7.70;5.87;;;;;;;25.19;58.25;99205.03;2064489;28;20018;-61
2021/06/18 00:23:44;;;;;;;8.40;5.20;;;;;;;25.19;58.39;99202.28;2068551;28;20033;-62
2021/06/18 00:24:44;;;;;;;7.07;5.53;;;;;;;25.20;58.42;99206.72;2062017;28;20025;-62
2021/06/18 00:25:45;;;;;;;6.93;6.03;;;;;;;25.20;58.17;99215.00;2067242;28;20033;-63
2021/06/18 00:26:45;;;;;;;7.23;5.93;;;;;;;25.21;58.49;99215.88;2069366;28;20044;-62
2021/06/18 00:27:46;;;;;;;8.43;6.07;;;;;;;25.20;58.16;99206.72;2068804;28;20025;-61
2021/06/18 00:28:46;;;;;;;8.10;6.07;;;;;;;25.20;58.15;99208.66;2070465;28;20033;-62
2021/06/18 00:29:47;;;;;;;6.63;5.43;;;;;;;25.21;58.13;99210.38;2072901;28;20696;-61
2021/06/18 00:30:47;;;;;;;6.97;5.63;;;;;;;25.21;58.38;99216.72;2072630;28;20446;-62
2021/06/18 00:31:47;;;;;;;6.63;5.10;;;;;;;25.20;58.36;99222.44;2069289;28;20508;-62
2021/06/18 00:32:48;;;;;;;6.23;5.20;;;;;;;25.19;58.51;99216.06;2065106;28;20033;-62
2021/06/18 00:33:48;;;;;;;7.13;5.40;;;;;;;25.19;58.20;99227.13;2074433;28;20523;-62
2021/06/18 00:34:49;;;;;;;5.30;4.67;;;;;;;25.20;58.39;99222.44;2077273;28;20032;-62
2021/06/18 00:35:50;;;;;;;6.63;5.47;;;;;;;25.20;58.17;99226.03;2076395;28;20029;-62
2021/06/18 00:36:50;;;;;;;6.00;5.40;;;;;;;25.20;58.40;99231.56;2077210;28;20764;-62
2021/06/18 00:37:51;;;;;;;6.27;5.10;;;;;;;25.20;58.35;99226.03;2076441;28;20084;-62
2021/06/18 00:38:51;;;;;;;6.13;5.30;;;;;;;25.19;58.37;99223.50;2075169;28;20028;-62
2021/06/18 00:39:52;;;;;;;7.28;5.03;;;;;;;25.17;58.30;99218.19;2069096;28;20052;-62
2021/06/18 00:40:53;;;;;;;7.37;5.40;;;;;;;25.17;58.18;99220.94;2072078;28;20139;-62
2021/06/18 00:41:54;;;;;;;6.17;5.33;;;;;;;25.17;58.22;99218.19;2070334;28;20614;-61
2021/06/18 00:42:54;;;;;;;6.70;5.50;;;;;;;25.17;58.31;99220.09;2067625;28;20021;-62
2021/06/18 00:43:56;;;;;;;6.47;4.93;;;;;;;25.17;58.36;99229.22;2062196;28;20030;-62
2021/06/18 00:44:56;;;;;;;6.75;5.80;;;;;;;25.17;58.57;99226.47;2072049;28;20104;-62
2021/06/18 00:45:57;;;;;;;7.13;5.53;;;;;;;25.16;58.23;99222.00;2076952;28;20033;-62
2021/06/18 00:46:57;;;;;;;7.37;5.33;;;;;;;25.17;58.49;99225.63;2075107;28;20048;-62
2021/06/18 00:48:01;;;;;;;5.70;5.10;;;;;;;25.16;58.46;99224.75;2070915;28;20048;-63
2021/06/18 00:49:02;;;;;;;6.40;5.20;;;;;;;25.17;58.17;99212.69;2076575;28;20040;-63
2021/06/18 00:50:02;;;;;;;7.23;5.33;;;;;;;25.20;58.26;99222.44;2075464;28;20025;-63
2021/06/18 00:51:04;;;;;;;6.37;4.93;;;;;;;25.22;58.25;99217.56;2072167;28;20303;-63
2021/06/18 00:52:05;;;;;;;7.05;5.40;;;;;;;25.23;57.91;99220.13;2075219;28;20028;-63
2021/06/18 00:53:06;;;;;;;5.35;4.00;;;;;;;25.27;58.13;99219.69;2076434;28;20028;-63
2021/06/18 00:54:10;;;;;;;7.88;5.15;;;;;;;25.30;57.91;99216.50;2073983;28;20021;-63
2021/06/18 00:55:11;;;;;;;6.90;6.22;;;;;;;25.30;57.96;99211.81;2078435;28;21954;-63
2021/06/18 00:56:12;;;;;;;14.57;5.40;;;;;;;25.33;58.13;99221.59;2072095;28;20017;-63
2021/06/18 00:57:13;;;;;;;7.13;5.50;;;;;;;25.34;57.82;99215.88;2074354;28;20064;-63
2021/06/18 00:58:14;;;;;;;6.25;5.22;;;;;;;25.34;58.04;99217.78;2082239;28;20491;-63
2021/06/18 00:59:15;;;;;;;5.57;4.97;;;;;;;25.34;58.06;99224.16;2073587;28;20051;-63
2021/06/18 01:00:16;;;;;;;6.03;4.60;;;;;;;25.36;57.99;99215.66;2075719;28;20028;-63
2021/06/18 01:01:17;;;;;;;5.57;4.95;;;;;;;25.37;58.06;99228.38;2069336;28;20047;-63
2021/06/18 01:02:17;;;;;;;7.10;5.23;;;;;;;25.37;57.95;99229.22;2077941;28;20029;-63
2021/06/18 01:03:18;;;;;;;6.17;5.43;;;;;;;25.38;57.97;99235.59;2079374;28;20037;-63
2021/06/18 01:04:23;;;;;;;5.53;5.00;;;;;;;25.39;58.14;99231.78;2063728;28;20043;-63
2021/06/18 01:05:24;;;;;;;8.55;6.03;;;;;;;25.38;57.95;99235.59;2066642;28;20036;-64
2021/06/18 01:06:33;;;;;;;6.15;4.68;;;;;;;25.39;57.88;99238.16;2069724;28;20031;-64
2021/06/18 01:07:41;;;;;;;5.40;4.70;;;;;;;25.38;58.02;99235.59;2075080;28;20119;-63
2021/06/18 01:08:46;;;;;;;8.05;5.03;;;;;;;25.37;58.26;99239.44;2073724;28;20035;-64
2021/06/18 01:09:57;;;;;;;6.65;5.30;;;;;;;25.40;58.04;99239.00;2067360;28;20025;-64
2021/06/18 01:11:19;;;;;;;5.63;4.88;;;;;;;25.39;58.07;99242.81;2066137;28;20032;-64
2021/06/18 01:12:23;;;;;;;6.80;5.20;;;;;;;25.37;58.20;99243.03;2069937;28;20043;-63
2021/06/18 01:13:42;;;;;;;6.20;5.30;;;;;;;25.37;58.25;99239.44;2071046;28;20428;-64
2021/06/18 01:14:56;;;;;;;5.90;5.18;;;;;;;25.37;57.86;99239.44;2073097;28;20035;-64
2021/06/18 01:16:05;;;;;;;6.97;5.18;;;;;;;25.36;58.30;99243.25;2067548;28;20033;-64
2021/06/18 01:17:26;;;;;;;5.22;4.72;;;;;;;25.37;57.97;99244.94;2066480;28;20069;-64
2021/06/18 01:18:33;;;;;;;7.20;5.57;;;;;;;25.37;58.29;99242.19;2069627;28;20029;-64
2021/06/18 01:20:00;;;;;;;6.18;5.28;;;;;;;25.38;58.07;99241.09;2072577;28;20097;-63
2021/06/18 01:21:17;;;;;;;6.30;5.07;;;;;;;25.36;58.26;99243.25;2049927;28;20050;-63
2021/06/18 01:22:20;;;;;;;5.88;4.90;;;;;;;25.37;58.25;99242.19;2066636;28;20540;-63
2021/06/18 01:23:29;;;;;;;6.47;5.35;;;;;;;25.36;58.13;99243.25;2070548;28;20017;-64
2021/06/18 01:24:47;;;;;;;7.45;5.35;;;;;;;25.37;58.06;99244.94;2068948;28;20854;-64
2021/06/18 01:25:52;;;;;;;6.38;4.95;;;;;;;25.37;58.04;99250.47;2068193;28;20069;-63
2021/06/18 01:27:17;;;;;;;5.38;4.72;;;;;;;25.38;58.20;99247.50;2073316;28;20043;-63
2021/06/18 01:28:40;;;;;;;4.88;4.32;;;;;;;25.37;58.33;99250.47;2071326;28;20021;-63
2021/06/18 01:29:44;;;;;;;6.15;5.28;;;;;;;25.36;58.08;99246.00;2072653;28;20029;-63
2021/06/18 01:30:46;;;;;;;7.38;5.07;;;;;;;25.36;58.22;99254.28;2067651;28;20120;-64
2021/06/18 01:31:50;;;;;;;5.85;4.55;;;;;;;25.36;58.42;99249.63;2072797;28;20526;-62
2021/06/18 01:33:02;;;;;;;8.68;4.60;;;;;;;25.34;58.04;99256.41;2072522;28;20064;-62
2021/06/18 01:34:12;;;;;;;7.72;5.35;;;;;;;25.32;58.16;99258.53;2073767;28;20048;-62
2021/06/18 01:35:18;;;;;;;5.00;4.50;;;;;;;25.28;58.33;99249.81;2060695;28;20021;-62
2021/06/18 01:36:21;;;;;;;7.97;4.80;;;;;;;25.26;58.50;99254.72;2072885;28;20466;-62
2021/06/18 01:37:26;;;;;;;6.55;4.38;;;;;;;25.24;58.52;99252.16;2071250;28;20663;-62
2021/06/18 01:38:30;;;;;;;6.57;5.03;;;;;;;25.23;58.52;99247.72;2072573;28;20052;-62
2021/06/18 01:39:31;;;;;;;7.10;4.80;;;;;;;25.22;58.69;99247.91;2066291;28;20021;-62
2021/06/18 01:40:34;;;;;;;6.95;4.60;;;;;;;25.20;58.45;99245.34;2066526;28;20068;-62
2021/06/18 01:41:34;;;;;;;5.53;4.95;;;;;;;25.20;58.43;99250.84;2075000;28;20036;-62
2021/06/18 01:42:38;;;;;;;4.83;4.33;;;;;;;25.20;58.57;99259.13;2070988;28;20029;-62
2021/06/18 01:43:46;;;;;;;6.07;4.88;;;;;;;25.18;58.58;99255.72;2072446;28;20056;-62
2021/06/18 01:44:47;;;;;;;6.50;5.05;;;;;;;25.19;58.80;99260.19;2067330;28;20030;-62
2021/06/18 01:45:49;;;;;;;5.57;4.50;;;;;;;25.18;58.57;99252.13;2079113;28;20025;-62
2021/06/18 01:46:51;;;;;;;7.20;5.07;;;;;;;25.18;58.58;99246.63;2069469;28;20428;-62
2021/06/18 01:47:55;;;;;;;7.15;5.40;;;;;;;25.19;58.77;99243.66;2075468;28;20396;-62
2021/06/18 01:49:00;;;;;;;6.63;4.88;;;;;;;25.18;58.64;99252.13;2076409;28;20487;-62
2021/06/18 01:50:02;;;;;;;5.97;5.05;;;;;;;25.18;58.70;99249.38;2077380;28;20021;-62
2021/06/18 01:51:04;;;;;;;5.05;4.38;;;;;;;25.17;58.86;99251.28;2080042;28;20021;-62
2021/06/18 01:52:06;;;;;;;5.40;4.63;;;;;;;25.16;58.62;99249.56;2074938;28;20534;-62
2021/06/18 01:53:13;;;;;;;6.20;4.82;;;;;;;25.16;58.75;99249.56;2067623;28;20021;-62
2021/06/18 01:54:15;;;;;;;5.88;5.28;;;;;;;25.17;58.29;99245.78;2072255;28;20025;-62
2021/06/18 01:55:22;;;;;;;5.38;4.88;;;;;;;25.16;58.54;99252.31;2066370;28;20036;-62
2021/06/18 01:56:24;;;;;;;5.57;4.35;;;;;;;25.16;58.49;99246.81;2067152;28;20648;-62
2021/06/18 01:57:26;;;;;;;6.72;5.03;;;;;;;25.15;58.57;99242.34;2070293;28;20048;-62
2021/06/18 01:58:29;;;;;;;5.13;4.53;;;;;;;25.17;58.54;99245.78;2070020;28;20009;-62
2021/06/18 01:59:34;;;;;;;5.18;4.13;;;;;;;25.15;58.40;99235.97;2069653;28;20101;-62
2021/06/18 02:00:40;;;;;;;5.43;4.70;;;;;;;25.15;58.33;99233.22;2074060;28;20122;-62
2021/06/18 02:01:45;;;;;;;5.50;4.97;;;;;;;25.15;58.36;99225.78;2074228;28;20025;-62
2021/06/18 02:02:47;;;;;;;5.68;4.82;;;;;;;25.16;58.43;99229.38;2069911;28;20030;-62
2021/06/18 02:03:48;;;;;;;6.95;4.60;;;;;;;25.16;58.52;99234.91;2069765;28;20096;-62
2021/06/18 02:04:51;;;;;;;5.70;4.45;;;;;;;25.14;58.61;99224.09;2070801;28;20097;-62
2021/06/18 02:05:54;;;;;;;5.00;4.35;;;;;;;25.14;58.60;99229.63;2075188;28;20644;-62
2021/06/18 02:06:55;;;;;;;5.85;4.40;;;;;;;25.14;58.55;99231.53;2067325;28;20029;-62
2021/06/18 02:07:58;;;;;;;5.63;4.63;;;;;;;25.14;58.66;99229.63;2069110;28;20049;-62
2021/06/18 02:09:00;;;;;;;4.78;4.20;;;;;;;25.14;58.52;99228.78;2067003;28;20379;-62
2021/06/18 02:10:07;;;;;;;5.20;4.25;;;;;;;25.14;58.50;99235.13;2070785;28;20120;-62
2021/06/18 02:11:09;;;;;;;5.82;4.30;;;;;;;25.13;58.49;99232.56;2068830;28;20028;-62
2021/06/18 02:12:10;;;;;;;4.55;4.15;;;;;;;25.12;58.55;99234.50;2067796;28;20025;-62
2021/06/18 02:13:13;;;;;;;5.15;4.60;;;;;;;25.13;58.68;99241.69;2074647;28;20496;-63
2021/06/18 02:14:19;;;;;;;5.85;4.72;;;;;;;25.13;58.47;99235.34;2060914;28;20672;-62
2021/06/18 02:15:20;;;;;;;4.90;4.40;;;;;;;25.13;58.57;99238.94;2071067;28;20792;-62
2021/06/18 02:16:24;;;;;;;8.30;5.75;;;;;;;25.12;58.49;99234.50;2069313;28;20098;-62
2021/06/18 02:17:27;;;;;;;5.57;4.68;;;;;;;25.11;58.63;99232.81;2068308;28;20785;-62
2021/06/18 02:18:31;;;;;;;4.88;4.22;;;;;;;25.12;58.68;99242.75;2069610;28;20025;-62
2021/06/18 02:19:34;;;;;;;5.53;4.72;;;;;;;25.12;58.46;99245.53;2073540;28;20091;-62
2021/06/18 02:20:36;;;;;;;4.43;4.03;;;;;;;25.12;58.49;99242.75;2071906;28;20500;-62
2021/06/18 02:21:37;;;;;;;5.43;4.50;;;;;;;25.12;58.45;99239.16;2079872;28;20036;-62
2021/06/18 02:22:40;;;;;;;6.90;4.40;;;;;;;25.12;58.35;99244.69;2075466;28;20143;-62
2021/06/18 02:23:42;;;;;;;7.03;4.78;;;;;;;25.12;58.64;99242.75;2082051;28;20652;-62
2021/06/18 02:24:43;;;;;;;5.43;4.03;;;;;;;25.11;58.39;99235.56;2074301;28;20021;-62
2021/06/18 02:25:44;;;;;;;6.07;4.97;;;;;;;25.12;58.38;99241.94;2070885;28;20107;-62
2021/06/18 02:26:47;;;;;;;7.13;4.80;;;;;;;25.10;58.62;99228.34;2070284;28;20609;-62
2021/06/18 02:27:47;;;;;;;5.03;4.45;;;;;;;25.11;58.67;99235.56;2065668;28;20084;-62
2021/06/18 02:28:48;;;;;;;5.90;4.80;;;;;;;25.11;58.54;99240.22;2066056;28;20021;-62
2021/06/18 02:29:48;;;;;;;5.50;4.60;;;;;;;25.09;58.50;99237.69;2069439;28;20013;-62
2021/06/18 02:30:51;;;;;;;4.67;4.00;;;;;;;25.12;58.65;99239.16;2073483;28;20075;-62
2021/06/18 02:31:56;;;;;;;5.68;4.95;;;;;;;25.10;58.56;99239.38;2075801;28;20748;-62
2021/06/18 02:33:01;;;;;;;4.78;4.10;;;;;;;25.10;58.51;99238.53;2068516;28;20462;-62
2021/06/18 02:34:02;;;;;;;4.80;4.30;;;;;;;25.10;58.64;99233.84;2075234;28;20031;-62
2021/06/18 02:35:04;;;;;;;5.87;4.10;;;;;;;25.10;58.65;99239.38;2072466;28;20024;-62
2021/06/18 02:36:05;;;;;;;4.88;4.38;;;;;;;25.10;58.54;99238.53;2066483;28;20248;-62
2021/06/18 02:37:07;;;;;;;6.50;4.50;;;;;;;25.09;58.43;99240.44;2069536;28;20045;-62
2021/06/18 02:38:09;;;;;;;5.97;4.63;;;;;;;25.10;58.64;99239.38;2066813;28;20035;-61
2021/06/18 02:39:11;;;;;;;5.10;4.15;;;;;;;25.09;58.63;99243.19;2066402;28;20446;-62
2021/06/18 02:40:12;;;;;;;5.68;4.45;;;;;;;25.09;58.42;99243.19;2062626;28;20739;-62
2021/06/18 02:41:13;;;;;;;6.07;3.97;;;;;;;25.10;58.70;99250.41;2066770;28;20490;-62
2021/06/18 02:42:13;;;;;;;7.13;4.50;;;;;;;25.08;58.48;99240.63;2069000;28;20017;-62
2021/06/18 02:43:14;;;;;;;4.40;3.90;;;;;;;25.09;58.49;99245.94;2074937;28;20029;-62
2021/06/18 02:44:14;;;;;;;5.83;4.67;;;;;;;25.09;58.61;99248.72;2063218;28;20010;-62
2021/06/18 02:45:15;;;;;;;5.07;4.47;;;;;;;25.09;58.70;99254.22;2067775;28;20029;-62
2021/06/18 02:46:26;;;;;;;6.80;4.43;;;;;;;25.09;58.63;99258.91;2066040;28;20613;-62
2021/06/18 02:47:50;;;;;;;5.32;4.30;;;;;;;25.06;58.68;99257.38;2073944;28;20040;-62
2021/06/18 02:48:55;;;;;;;4.68;3.92;;;;;;;25.07;58.76;99253.56;2065422;28;20025;-63
2021/06/18 02:50:02;;;;;;;5.13;4.00;;;;;;;25.06;58.71;99249.09;2066255;28;20889;-62
2021/06/18 02:51:09;;;;;;;5.15;4.65;;;;;;;25.06;58.63;99242.75;2077708;28;20070;-63
2021/06/18 02:52:20;;;;;;;4.85;4.13;;;;;;;25.06;58.38;99243.59;2068571;28;20020;-62
2021/06/18 02:53:39;;;;;;;6.25;4.57;;;;;;;25.05;58.37;99250.19;2072641;28;20579;-62
2021/06/18 02:54:48;;;;;;;5.57;4.97;;;;;;;25.06;58.55;99248.25;2065807;28;20550;-62
2021/06/18 02:56:07;;;;;;;6.00;4.10;;;;;;;25.06;58.69;99253.78;2077745;28;20017;-62
2021/06/18 02:57:17;;;;;;;4.43;3.80;;;;;;;25.04;58.74;99265.03;2076096;28;20523;-62
2021/06/18 02:58:25;;;;;;;4.88;3.92;;;;;;;25.04;58.50;99265.03;2076248;28;20147;-62
2021/06/18 02:59:32;;;;;;;4.95;4.30;;;;;;;25.04;58.56;99267.78;2072828;28;20725;-62
2021/06/18 03:00:33;;;;;;;5.35;4.32;;;;;;;25.05;58.63;99271.38;2069166;28;20021;-62
2021/06/18 03:01:40;;;;;;;4.95;4.05;;;;;;;25.05;58.61;99275.00;2073079;28;20028;-62
2021/06/18 03:02:53;;;;;;;5.43;4.47;;;;;;;25.04;58.59;99270.53;2066825;28;20042;-62
2021/06/18 03:03:57;;;;;;;4.88;4.35;;;;;;;25.05;58.41;99271.38;2068038;28;20025;-62
2021/06/18 03:05:00;;;;;;;5.60;4.35;;;;;;;25.05;58.71;99269.47;2075239;28;20523;-62
2021/06/18 03:06:03;;;;;;;5.30;3.95;;;;;;;25.05;58.43;99269.47;2074395;28;20054;-62
2021/06/18 03:07:07;;;;;;;5.07;4.18;;;;;;;25.06;58.62;99262.06;2061361;28;20030;-62
2021/06/18 03:08:10;;;;;;;4.70;3.83;;;;;;;25.06;58.65;99276.69;2071612;28;20400;-62
2021/06/18 03:09:11;;;;;;;5.88;4.50;;;;;;;25.05;58.32;99275.00;2070284;28;20028;-62
2021/06/18 03:10:15;;;;;;;4.95;4.43;;;;;;;25.06;58.78;99271.16;2066000;28;20033;-62
2021/06/18 03:11:18;;;;;;;4.70;4.10;;;;;;;25.05;58.75;99269.47;2064218;28;20384;-62
2021/06/18 03:12:23;;;;;;;6.30;4.32;;;;;;;25.06;58.57;99268.41;2068636;28;20507;-61
2021/06/18 03:13:30;;;;;;;4.70;4.20;;;;;;;25.05;58.56;99271.38;2068321;28;20048;-62
2021/06/18 03:14:35;;;;;;;4.70;4.00;;;;;;;25.05;58.30;99269.47;2075345;28;20035;-62
2021/06/18 03:15:40;;;;;;;4.40;4.00;;;;;;;25.04;58.46;99278.81;2069638;28;20789;-61
2021/06/18 03:17:01;;;;;;;4.95;4.32;;;;;;;25.04;58.44;99287.09;2068678;28;20029;-61
2021/06/18 03:18:02;;;;;;;5.43;4.05;;;;;;;25.04;58.56;99284.34;2063588;28;20068;-62
2021/06/18 03:19:06;;;;;;;5.75;4.18;;;;;;;25.03;58.55;99288.97;2063699;28;20029;-61
2021/06/18 03:20:19;;;;;;;5.57;3.92;;;;;;;25.03;58.56;99285.38;2073125;28;20029;-61
2021/06/18 03:21:21;;;;;;;6.28;3.63;;;;;;;25.03;58.32;99280.69;2072364;28;20513;-62
2021/06/18 03:22:23;;;;;;;5.43;4.10;;;;;;;25.03;58.70;99286.22;2072057;28;20039;-61
2021/06/18 03:23:25;;;;;;;5.25;3.75;;;;;;;25.04;58.64;99278.81;2072854;28;20120;-62
2021/06/18 03:24:26;;;;;;;;;;;;;;;25.00;58.54;99272.00;2068609;28;20055;-62
2021/06/18 03:25:29;;;;;;;4.72;3.92;;;;;;;25.00;58.37;99275.63;2071458;28;19970;-61
2021/06/18 03:26:31;;;;;;;4.95;3.67;;;;;;;25.01;58.52;99270.94;2066086;28;20742;-62
2021/06/18 03:27:33;;;;;;;4.60;3.65;;;;;;;25.01;58.72;99280.09;2071820;28;20107;-61
2021/06/18 03:28:36;;;;;;;5.95;4.32;;;;;;;25.01;58.58;99276.47;2079040;28;20044;-62
2021/06/18 03:29:38;;;;;;;4.30;3.80;;;;;;;25.01;58.82;99276.47;2074476;28;20064;-62
2021/06/18 03:30:39;;;;;;;;;;;;;;;24.98;58.82;99283.25;2068882;28;20035;-62
2021/06/18 03:31:42;;;;;;;4.70;4.10;;;;;;;24.98;58.70;99280.47;2067838;28;19912;-61
2021/06/18 03:32:44;;;;;;;5.03;4.18;;;;;;;25.00;58.68;99283.03;2075364;28;20032;-61
2021/06/18 03:33:47;;;;;;;5.15;4.45;;;;;;;25.00;58.47;99294.91;2074941;28;20063;-61
2021/06/18 03:34:48;;;;;;;4.75;4.25;;;;;;;25.01;58.74;99284.72;2067730;28;20506;-61
2021/06/18 03:35:50;;;;;;;4.57;4.10;;;;;;;25.01;58.65;99291.13;2072024;28;20025;-62
2021/06/18 03:36:52;;;;;;;4.57;4.18;;;;;;;25.01;58.50;99281.97;2069535;28;20491;-62
2021/06/18 03:37:53;;;;;;;7.18;4.00;;;;;;;25.01;58.58;99284.72;2069781;28;20021;-61
2021/06/18 03:38:54;;;;;;;6.33;3.97;;;;;;;25.03;58.41;99290.88;2074901;28;20041;-62
2021/06/18 03:39:55;;;;;;;4.82;4.10;;;;;;;25.02;58.67;99286.44;2067537;28;20017;-61
2021/06/18 03:40:56;;;;;;;4.93;4.23;;;;;;;25.02;58.54;99290.03;2068328;28;20044;-62
2021/06/18 03:41:58;;;;;;;5.50;4.07;;;;;;;25.03;58.63;99293.66;2063258;28;20029;-61
2021/06/18 03:42:58;;;;;;;;;;;;;;;24.98;58.73;99296.19;2067256;28;20035;-61
2021/06/18 03:43:59;;;;;;;5.03;4.13;;;;;;;24.99;58.44;99297.91;2067363;28;19917;-62
2021/06/18 03:45:03;;;;;;;4.70;4.20;;;;;;;24.98;58.62;99305.28;2068176;28;20115;-61
2021/06/18 03:46:06;;;;;;;5.10;3.85;;;;;;;25.00;58.56;99305.09;2083136;28;20122;-63
2021/06/18 03:47:08;;;;;;;4.97;4.47;;;;;;;25.00;58.81;99305.94;2074583;28;20496;-62
2021/06/18 03:48:12;;;;;;;4.70;4.20;;;;;;;25.00;58.49;99303.19;2068499;28;20531;-61
2021/06/18 03:49:13;;;;;;;4.80;4.03;;;;;;;25.00;58.83;99314.22;2058799;28;20136;-62
2021/06/18 03:50:20;;;;;;;5.03;3.95;;;;;;;25.01;58.81;99312.31;2065130;28;20033;-61
2021/06/18 03:51:20;;;;;;;5.30;4.40;;;;;;;25.01;58.40;99302.16;2065996;28;20748;-62
2021/06/18 03:52:21;;;;;;;4.77;3.87;;;;;;;25.01;58.56;99310.41;2068269;28;20706;-62
2021/06/18 03:53:21;;;;;;;4.00;3.60;;;;;;;25.03;58.41;99319.31;2071481;28;20044;-62
2021/06/18 03:54:23;;;;;;;5.07;4.10;;;;;;;25.01;58.69;99318.69;2070272;28;20104;-61
2021/06/18 03:55:23;;;;;;;5.55;4.03;;;;;;;25.01;58.58;99315.06;2070277;28;20503;-62
2021/06/18 03:56:24;;;;;;;5.00;4.10;;;;;;;25.01;58.56;99317.81;2062363;28;20133;-62
2021/06/18 03:57:25;;;;;;;4.25;3.85;;;;;;;25.00;58.72;99311.47;2071191;28;20085;-62
2021/06/18 03:58:27;;;;;;;5.05;4.55;;;;;;;25.01;58.66;99318.69;2070704;28;20785;-61
2021/06/18 03:59:29;;;;;;;6.13;3.90;;;;;;;25.00;58.65;99319.72;2071366;28;20022;-62
2021/06/18 04:00:34;;;;;;;5.35;3.92;;;;;;;25.01;58.64;99323.31;2066530;28;20036;-61
2021/06/18 04:01:37;;;;;;;4.13;3.60;;;;;;;25.00;58.75;99327.16;2064831;28;20021;-62
2021/06/18 04:02:39;;;;;;;4.85;4.28;;;;;;;24.99;58.75;99325.47;2069611;28;20100;-61
2021/06/18 04:03:42;;;;;;;4.70;3.85;;;;;;;25.00;58.82;99333.50;2068150;28;20035;-62
2021/06/18 04:04:44;;;;;;;4.47;4.07;;;;;;;25.00;58.64;99329.91;2063089;28;20034;-62
2021/06/18 04:05:46;;;;;;;4.85;3.85;;;;;;;24.99;58.65;99329.06;2069859;28;20110;-62
2021/06/18 04:06:48;;;;;;;4.75;4.18;;;;;;;25.00;58.83;99343.69;2058982;28;20114;-61
2021/06/18 04:07:52;;;;;;;4.22;3.80;;;;;;;25.00;58.46;99338.19;2070601;28;20512;-62
2021/06/18 04:08:52;;;;;;;4.43;3.75;;;;;;;25.00;58.60;99343.69;2070495;28;20108;-61
2021/06/18 04:09:53;;;;;;;4.07;3.67;;;;;;;25.00;58.46;99343.69;2066080;28;20033;-61
2021/06/18 04:10:55;;;;;;;5.00;3.90;;;;;;;25.00;58.46;99349.22;2074525;28;20025;-61
2021/06/18 04:11:56;;;;;;;4.18;3.78;;;;;;;25.00;58.58;99354.72;2070526;28;20021;-61
2021/06/18 04:12:58;;;;;;;4.88;3.40;;;;;;;25.00;58.65;99351.97;2066948;28;20057;-61
2021/06/18 04:14:00;;;;;;;4.15;3.42;;;;;;;24.99;58.79;99350.28;2074376;28;20130;-63
2021/06/18 04:15:01;;;;;;;4.70;3.70;;;;;;;24.99;58.81;99353.03;2068047;28;20029;-61
2021/06/18 04:16:02;;;;;;;4.37;3.97;;;;;;;24.99;58.67;99350.28;2066860;28;20029;-61
2021/06/18 04:17:10;;;;;;;4.20;3.80;;;;;;;24.98;58.84;99345.81;2068215;28;20406;-61
2021/06/18 04:18:12;;;;;;;4.40;3.95;;;;;;;24.99;58.69;99347.53;2077577;28;20020;-61
2021/06/18 04:19:13;;;;;;;4.85;4.25;;;;;;;24.98;58.72;99351.31;2074804;28;20446;-61
2021/06/18 04:20:15;;;;;;;4.27;3.87;;;;;;;24.98;58.95;99351.31;2076080;28;20028;-61
2021/06/18 04:21:19;;;;;;;4.07;3.67;;;;;;;24.97;58.79;99355.16;2077701;28;20075;-61
2021/06/18 04:22:29;;;;;;;5.60;3.90;;;;;;;24.97;58.71;99355.16;2070183;28;20049;-62
2021/06/18 04:23:29;;;;;;;3.97;3.55;;;;;;;24.97;58.78;99371.69;2081680;28;20028;-62
2021/06/18 04:24:30;;;;;;;3.90;3.50;;;;;;;24.99;58.81;99375.09;2071276;28;20053;-62
2021/06/18 04:25:30;;;;;;;4.20;3.67;;;;;;;24.98;58.80;99373.38;2066992;28;20040;-62
2021/06/18 04:26:31;;;;;;;4.13;3.47;;;;;;;24.99;58.72;99364.06;2072843;28;20036;-61
2021/06/18 04:27:34;;;;;;;5.33;3.63;;;;;;;24.96;58.86;99362.56;2070233;28;20066;-61
2021/06/18 04:28:39;;;;;;;4.57;3.72;;;;;;;24.97;58.81;99374.44;2072699;28;20024;-61
2021/06/18 04:29:39;;;;;;;4.53;3.80;;;;;;;24.98;58.83;99371.47;2070300;28;20024;-62
2021/06/18 04:30:40;;;;;;;5.10;4.10;;;;;;;24.97;58.91;99363.41;2072126;28;20036;-61
2021/06/18 04:31:40;;;;;;;3.90;3.50;;;;;;;24.97;58.87;99372.53;2065804;28;20118;-62
2021/06/18 04:32:41;;;;;;;4.80;3.80;;;;;;;24.97;58.58;99372.53;2065238;28;20026;-62
2021/06/18 04:33:42;;;;;;;4.43;3.97;;;;;;;24.96;58.84;99375.47;2074356;28;20055;-62
2021/06/18 04:34:42;;;;;;;4.83;3.90;;;;;;;24.96;58.67;99375.47;2068535;28;20351;-62
2021/06/18 04:35:43;;;;;;;4.50;3.73;;;;;;;24.97;58.76;99366.16;2066357;28;20056;-61
2021/06/18 04:36:43;;;;;;;4.57;3.67;;;;;;;24.96;58.67;99370.84;2077243;28;20054;-61
2021/06/18 04:37:44;;;;;;;4.33;3.80;;;;;;;24.94;58.81;99370.19;2069840;28;20404;-62
2021/06/18 04:38:44;;;;;;;4.13;3.67;;;;;;;24.96;58.75;99376.34;2069721;28;20017;-61
2021/06/18 04:39:45;;;;;;;4.40;3.80;;;;;;;24.97;58.77;99377.19;2072954;28;20032;-61
2021/06/18 04:40:45;;;;;;;4.33;3.67;;;;;;;24.96;58.85;99375.47;2074679;28;20036;-61
2021/06/18 04:41:46;;;;;;;5.03;4.43;;;;;;;24.96;58.89;99376.34;2073916;28;20738;-62
2021/06/18 04:42:46;;;;;;;4.50;3.77;;;;;;;24.96;58.83;99386.50;2070318;28;20018;-62
2021/06/18 04:43:46;;;;;;;4.10;3.60;;;;;;;24.97;58.91;99388.22;2075905;28;20115;-61
2021/06/18 04:44:47;;;;;;;4.03;3.67;;;;;;;24.96;58.75;99386.50;2066321;28;20689;-62
2021/06/18 04:45:47;;;;;;;3.77;3.43;;;;;;;24.95;58.92;99390.34;2071015;28;20030;-61
2021/06/18 04:46:49;;;;;;;4.60;3.87;;;;;;;24.96;58.96;99394.78;2066945;28;20030;-61
2021/06/18 04:47:49;;;;;;;5.95;3.97;;;;;;;24.96;58.98;99394.78;2076056;28;20017;-61
2021/06/18 04:48:50;;;;;;;4.70;3.80;;;;;;;24.95;59.08;99391.19;2074264;28;20140;-61
2021/06/18 04:49:50;;;;;;;5.23;3.27;;;;;;;24.95;58.85;99391.19;2075409;28;20033;-62
2021/06/18 04:50:51;;;;;;;3.90;3.47;;;;;;;24.95;58.68;99393.94;2070633;28;20026;-62
2021/06/18 04:51:51;;;;;;;4.27;3.53;;;;;;;24.96;58.87;99397.53;2069849;28;20017;-61
2021/06/18 04:52:52;;;;;;;4.33;3.47;;;;;;;24.96;58.74;99392.91;2074228;28;20094;-61
2021/06/18 04:53:54;;;;;;;3.97;3.30;;;;;;;24.94;59.02;99388.63;2071561;28;20516;-61
2021/06/18 04:54:58;;;;;;;3.85;3.00;;;;;;;24.95;58.65;99390.34;2052487;28;20528;-62
2021/06/18 04:56:01;;;;;;;3.80;3.35;;;;;;;24.95;58.91;99387.59;2065741;28;20021;-62
2021/06/18 04:57:02;;;;;;;5.35;3.70;;;;;;;24.95;58.86;99387.59;2077852;28;20097;-61
2021/06/18 04:58:02;;;;;;;3.90;3.45;;;;;;;24.94;58.73;99394.13;2074279;28;20051;-61